Time;durP1;ratioP1;P1;durP2;ratioP2;P2;SDS_P1;SDS_P2;PMS_P1;PMS_P2;Temp;Humidity;BMP_temperature;BMP_pressure;BME280_temperature;BME280_humidity;BME280_pressure;Samples;Min_cycle;Max_cycle;Signal;HPM_P1;HPM_P2
2021/07/11 00:02:07;;;;;;;0.10;0.10;;;;;;;;;;4901448;29;20108;-87
2021/07/11 00:04:33;;;;;;;0.20;0.20;;;;;;;;;;4901666;29;20378;-88
2021/07/11 00:07:01;;;;;;;0.10;0.10;;;;;;;;;;4917060;29;20135;-87
2021/07/11 00:09:29;;;;;;;0.20;0.20;;;;;;;;;;4917087;29;20044;-86
2021/07/11 00:11:55;;;;;;;0.10;0.10;;;;;;;;;;4917066;29;20162;-87
2021/07/11 00:14:21;;;;;;;0.10;0.10;;;;;;;;;;4916958;29;20100;-86
2021/07/11 00:16:47;;;;;;;0.10;0.10;;;;;;;;;;4901117;29;20202;-86
2021/07/11 00:19:13;;;;;;;0.20;0.20;;;;;;;;;;4917874;29;20519;-86
2021/07/11 00:21:39;;;;;;;0.10;0.10;;;;;;;;;;4901266;29;20091;-86
2021/07/11 00:24:05;;;;;;;0.40;0.40;;;;;;;;;;4917066;29;20044;-87
2021/07/11 00:26:31;;;;;;;0.20;0.20;;;;;;;;;;4916696;29;20075;-86
2021/07/11 00:28:57;;;;;;;0.10;0.10;;;;;;;;;;4917883;29;20064;-87
2021/07/11 00:31:23;;;;;;;0.10;0.10;;;;;;;;;;4900941;29;20059;-86
2021/07/11 00:33:49;;;;;;;0.10;0.10;;;;;;;;;;4916692;29;20040;-87
2021/07/11 00:36:15;;;;;;;0.10;0.10;;;;;;;;;;4900706;29;20067;-86
2021/07/11 00:38:41;;;;;;;0.30;0.30;;;;;;;;;;4900907;29;20052;-86
2021/07/11 00:41:07;;;;;;;0.10;0.10;;;;;;;;;;4916731;29;20032;-86
2021/07/11 00:43:33;;;;;;;0.20;0.20;;;;;;;;;;4900686;29;20055;-86
2021/07/11 00:46:00;;;;;;;0.32;0.20;;;;;;;;;;4917508;29;20107;-86
2021/07/11 00:48:27;;;;;;;0.10;0.10;;;;;;;;;;4900738;29;20044;-86
2021/07/11 00:50:53;;;;;;;0.10;0.10;;;;;;;;;;4900767;29;20493;-85
2021/07/11 00:53:19;;;;;;;0.20;0.20;;;;;;;;;;4916289;29;20521;-86
2021/07/11 00:55:45;;;;;;;0.10;0.10;;;;;;;;;;4916296;29;20219;-85
2021/07/11 00:58:11;;;;;;;0.20;0.20;;;;;;;;;;4916123;29;20365;-86
2021/07/11 01:00:37;;;;;;;0.20;0.20;;;;;;;;;;4917523;29;20040;-86
2021/07/11 01:03:08;;;;;;;0.10;0.10;;;;;;;;;;4900420;29;20040;-85
2021/07/11 01:05:34;;;;;;;0.17;0.17;;;;;;;;;;4916094;29;20040;-85
2021/07/11 01:08:04;;;;;;;0.10;0.10;;;;;;;;;;4915968;29;20484;-86
2021/07/11 01:10:48;;;;;;;0.10;0.10;;;;;;;;;;4917234;29;20048;-86
2021/07/11 01:13:14;;;;;;;0.10;0.10;;;;;;;;;;4915990;29;20051;-87
2021/07/11 01:15:41;;;;;;;0.20;0.20;;;;;;;;;;4916048;29;20441;-86
2021/07/11 01:18:08;;;;;;;0.10;0.10;;;;;;;;;;4900394;29;20048;-87
2021/07/11 01:20:40;;;;;;;0.15;0.15;;;;;;;;;;4915867;29;20043;-86
2021/07/11 01:23:07;;;;;;;0.10;0.10;;;;;;;;;;4915628;29;20076;-86
2021/07/11 01:25:34;;;;;;;0.10;0.10;;;;;;;;;;4915718;29;20492;-87
2021/07/11 01:28:01;;;;;;;0.13;0.13;;;;;;;;;;4916745;29;20047;-86
2021/07/11 01:30:27;;;;;;;0.20;0.20;;;;;;;;;;4915199;29;20044;-87
2021/07/11 01:32:53;;;;;;;0.20;0.20;;;;;;;;;;4915589;29;20047;-86
2021/07/11 01:35:19;;;;;;;0.20;0.20;;;;;;;;;;4915510;29;20044;-86
2021/07/11 01:37:45;;;;;;;0.20;0.20;;;;;;;;;;4915088;29;20416;-85
2021/07/11 01:40:12;;;;;;;0.30;0.30;;;;;;;;;;4915555;29;20040;-85
2021/07/11 01:42:38;;;;;;;0.10;0.10;;;;;;;;;;4915629;29;20338;-86
2021/07/11 01:45:07;;;;;;;0.10;0.10;;;;;;;;;;4915403;29;20507;-85
2021/07/11 01:47:33;;;;;;;0.20;0.20;;;;;;;;;;4915278;29;20094;-85
2021/07/11 01:50:00;;;;;;;0.10;0.10;;;;;;;;;;4915289;29;20079;-86
2021/07/11 01:52:26;;;;;;;0.10;0.10;;;;;;;;;;4899578;29;20408;-85
2021/07/11 01:54:52;;;;;;;0.17;0.17;;;;;;;;;;4915186;29;20044;-86
2021/07/11 01:57:18;;;;;;;0.10;0.10;;;;;;;;;;4915062;29;20044;-86
2021/07/11 01:59:44;;;;;;;0.20;0.20;;;;;;;;;;4899513;29;20036;-85
2021/07/11 02:02:10;;;;;;;0.20;0.20;;;;;;;;;;4915343;29;20096;-85
2021/07/11 02:04:36;;;;;;;0.10;0.10;;;;;;;;;;4915176;29;20040;-85
2021/07/11 02:07:03;;;;;;;0.10;0.10;;;;;;;;;;4914873;29;20115;-85
2021/07/11 02:09:29;;;;;;;0.20;0.20;;;;;;;;;;4899367;29;20040;-85
2021/07/11 02:11:59;;;;;;;0.10;0.10;;;;;;;;;;4899564;29;20480;-86
2021/07/11 02:14:27;;;;;;;0.20;0.20;;;;;;;;;;4915004;29;20077;-86
2021/07/11 02:16:57;;;;;;;0.10;0.10;;;;;;;;;;4914779;29;20072;-86
2021/07/11 02:19:23;;;;;;;0.10;0.10;;;;;;;;;;4914950;29;20040;-86
2021/07/11 02:21:49;;;;;;;0.30;0.30;;;;;;;;;;4914959;29;20124;-87
2021/07/11 02:24:15;;;;;;;0.43;0.43;;;;;;;;;;4899352;29;20472;-86
2021/07/11 02:26:42;;;;;;;0.10;0.10;;;;;;;;;;4914924;29;20075;-87
2021/07/11 02:29:08;;;;;;;0.20;0.20;;;;;;;;;;4914962;29;20182;-87
2021/07/11 02:31:36;;;;;;;0.30;0.30;;;;;;;;;;4899277;29;20171;-87
2021/07/11 02:34:02;;;;;;;0.20;0.20;;;;;;;;;;4914811;29;20557;-87
2021/07/11 02:36:29;;;;;;;0.10;0.10;;;;;;;;;;4898716;29;20040;-86
2021/07/11 02:38:57;;;;;;;0.10;0.10;;;;;;;;;;4914687;29;20047;-86
2021/07/11 02:41:25;;;;;;;0.10;0.10;;;;;;;;;;4899273;29;20511;-86
2021/07/11 02:43:51;;;;;;;0.10;0.10;;;;;;;;;;4918286;29;20519;-86
2021/07/11 02:46:18;;;;;;;0.25;0.20;;;;;;;;;;4918608;29;20052;-86
2021/07/11 02:48:45;;;;;;;0.10;0.10;;;;;;;;;;4918594;29;20044;-86
2021/07/11 02:51:11;;;;;;;0.20;0.20;;;;;;;;;;4903069;29;20040;-86
2021/07/11 02:53:37;;;;;;;0.10;0.10;;;;;;;;;;4918531;29;20480;-86
2021/07/11 02:56:04;;;;;;;0.10;0.10;;;;;;;;;;4918535;29;20048;-86
2021/07/11 02:58:30;;;;;;;0.10;0.10;;;;;;;;;;4919715;29;20167;-87
2021/07/11 03:00:56;;;;;;;0.10;0.10;;;;;;;;;;4902851;29;20068;-87
2021/07/11 03:03:22;;;;;;;0.10;0.10;;;;;;;;;;4902995;29;20090;-87
2021/07/11 03:05:48;;;;;;;0.20;0.20;;;;;;;;;;4919416;29;20054;-87
2021/07/11 03:08:14;;;;;;;0.20;0.20;;;;;;;;;;4903925;29;20107;-88
2021/07/11 03:10:40;;;;;;;0.20;0.20;;;;;;;;;;4930729;29;20063;-91
2021/07/11 03:13:08;;;;;;;0.10;0.10;;;;;;;;;;4906412;29;20375;-88
2021/07/11 03:15:34;;;;;;;0.10;0.10;;;;;;;;;;4903647;29;20044;-87
2021/07/11 03:18:00;;;;;;;0.10;0.10;;;;;;;;;;4919166;29;20131;-86
2021/07/11 03:20:26;;;;;;;0.10;0.10;;;;;;;;;;4903195;29;20036;-87
2021/07/11 03:22:53;;;;;;;0.10;0.10;;;;;;;;;;4903283;29;20044;-86
2021/07/11 03:25:19;;;;;;;0.10;0.10;;;;;;;;;;4918746;29;20047;-87
2021/07/11 03:27:45;;;;;;;0.10;0.10;;;;;;;;;;4918068;29;20044;-86
2021/07/11 03:30:12;;;;;;;0.10;0.10;;;;;;;;;;4902250;29;20412;-86
2021/07/11 03:32:42;;;;;;;0.63;0.38;;;;;;;;;;4902093;29;20519;-86
2021/07/11 03:35:09;;;;;;;0.10;0.10;;;;;;;;;;4917787;29;20067;-87
2021/07/11 03:37:35;;;;;;;0.10;0.10;;;;;;;;;;4901853;29;20085;-86
2021/07/11 03:40:01;;;;;;;0.10;0.10;;;;;;;;;;4917581;29;20401;-86
2021/07/11 03:42:27;;;;;;;0.10;0.10;;;;;;;;;;4917568;29;20048;-87
2021/07/11 03:44:55;;;;;;;0.10;0.10;;;;;;;;;;4917392;29;20123;-86
2021/07/11 03:47:21;;;;;;;0.17;0.17;;;;;;;;;;4917550;29;20036;-87
2021/07/11 03:49:47;;;;;;;0.10;0.10;;;;;;;;;;4917524;29;20044;-87
2021/07/11 03:52:14;;;;;;;0.17;0.17;;;;;;;;;;4901773;29;20051;-87
2021/07/11 03:54:40;;;;;;;0.20;0.20;;;;;;;;;;4901208;29;20271;-87
2021/07/11 03:57:09;;;;;;;0.10;0.10;;;;;;;;;;4901893;29;20135;-87
2021/07/11 03:59:35;;;;;;;0.10;0.10;;;;;;;;;;4917250;29;20043;-86
2021/07/11 04:02:02;;;;;;;0.10;0.10;;;;;;;;;;4917214;29;20040;-87
2021/07/11 04:04:28;;;;;;;0.10;0.10;;;;;;;;;;4918276;29;20039;-86
2021/07/11 04:06:54;;;;;;;0.10;0.10;;;;;;;;;;4901406;29;20098;-86
2021/07/11 04:09:20;;;;;;;0.10;0.10;;;;;;;;;;4917267;29;20083;-86
2021/07/11 04:11:47;;;;;;;0.10;0.10;;;;;;;;;;4917145;29;20043;-87
2021/07/11 04:14:15;;;;;;;0.17;0.17;;;;;;;;;;4916987;29;20100;-86
2021/07/11 04:16:41;;;;;;;0.20;0.20;;;;;;;;;;4916770;29;20052;-88
2021/07/11 04:19:07;;;;;;;0.10;0.10;;;;;;;;;;4901382;29;20074;-87
2021/07/11 04:21:33;;;;;;;0.20;0.20;;;;;;;;;;4901181;29;20464;-86
2021/07/11 04:23:59;;;;;;;0.15;0.15;;;;;;;;;;4901213;29;20119;-87
2021/07/11 04:26:26;;;;;;;0.20;0.20;;;;;;;;;;4916678;29;20047;-86
2021/07/11 04:28:52;;;;;;;0.10;0.10;;;;;;;;;;4901212;29;20480;-86
2021/07/11 04:31:18;;;;;;;0.13;0.13;;;;;;;;;;4901052;29;20100;-87
2021/07/11 04:33:45;;;;;;;0.30;0.30;;;;;;;;;;4916673;29;20036;-87
2021/07/11 04:36:12;;;;;;;0.10;0.10;;;;;;;;;;4900727;29;20381;-88
2021/07/11 04:38:38;;;;;;;0.20;0.20;;;;;;;;;;4900857;29;20047;-87
2021/07/11 04:41:05;;;;;;;0.30;0.30;;;;;;;;;;4916450;29;20044;-87
2021/07/11 04:43:31;;;;;;;0.30;0.30;;;;;;;;;;4916551;29;20453;-87
2021/07/11 04:45:58;;;;;;;0.10;0.10;;;;;;;;;;4916436;29;20048;-87
2021/07/11 04:48:24;;;;;;;0.10;0.10;;;;;;;;;;4884869;29;20099;-87
2021/07/11 04:50:50;;;;;;;0.10;0.10;;;;;;;;;;4900762;29;20492;-87
2021/07/11 04:53:16;;;;;;;0.10;0.10;;;;;;;;;;4900614;29;20081;-87
2021/07/11 04:55:46;;;;;;;0.20;0.20;;;;;;;;;;4916167;29;20492;-88
2021/07/11 04:58:12;;;;;;;0.15;0.15;;;;;;;;;;4917303;29;20048;-87
2021/07/11 05:00:38;;;;;;;0.10;0.10;;;;;;;;;;4900477;29;20036;-87
2021/07/11 05:03:04;;;;;;;0.20;0.20;;;;;;;;;;4916198;29;20044;-88
2021/07/11 05:05:30;;;;;;;0.20;0.20;;;;;;;;;;4899560;29;20445;-87
2021/07/11 05:07:56;;;;;;;0.10;0.10;;;;;;;;;;4900289;29;20480;-87
2021/07/11 05:10:22;;;;;;;0.20;0.20;;;;;;;;;;4916044;29;20047;-87
2021/07/11 05:12:48;;;;;;;0.30;0.20;;;;;;;;;;4900258;29;20044;-87
2021/07/11 05:15:15;;;;;;;0.20;0.20;;;;;;;;;;4915964;29;20177;-88
2021/07/11 05:17:41;;;;;;;0.10;0.10;;;;;;;;;;4900296;29;20299;-86
2021/07/11 05:20:07;;;;;;;0.20;0.20;;;;;;;;;;4915882;29;20457;-87
2021/07/11 05:22:36;;;;;;;0.10;0.10;;;;;;;;;;4915898;29;20040;-87
2021/07/11 05:25:02;;;;;;;0.10;0.10;;;;;;;;;;4915713;29;20403;-88
2021/07/11 05:27:28;;;;;;;0.20;0.20;;;;;;;;;;4915697;29;20054;-87
2021/07/11 05:29:54;;;;;;;0.20;0.20;;;;;;;;;;4915779;29;20056;-87
2021/07/11 05:32:22;;;;;;;0.10;0.10;;;;;;;;;;4900232;29;20048;-87
2021/07/11 05:34:48;;;;;;;0.10;0.10;;;;;;;;;;4915582;29;20068;-88
2021/07/11 05:37:14;;;;;;;0.30;0.25;;;;;;;;;;4916412;29;20087;-86
2021/07/11 05:39:40;;;;;;;0.10;0.10;;;;;;;;;;4915400;29;20056;-87
2021/07/11 05:42:06;;;;;;;0.20;0.20;;;;;;;;;;4915599;29;20096;-86
2021/07/11 05:44:32;;;;;;;0.10;0.10;;;;;;;;;;4899918;29;20051;-86
2021/07/11 05:46:58;;;;;;;0.10;0.10;;;;;;;;;;4915289;29;20044;-88
2021/07/11 05:49:24;;;;;;;0.10;0.10;;;;;;;;;;4899855;29;20055;-87
2021/07/11 05:51:50;;;;;;;0.10;0.10;;;;;;;;;;4915287;29;20401;-87
2021/07/11 05:54:16;;;;;;;0.10;0.10;;;;;;;;;;4915288;29;20040;-89
2021/07/11 05:56:42;;;;;;;0.13;0.13;;;;;;;;;;4914105;29;20052;-87
2021/07/11 05:59:08;;;;;;;0.10;0.10;;;;;;;;;;4905759;29;20035;-87
2021/07/11 06:01:34;;;;;;;1.30;0.25;;;;;;;;;;4918453;29;20063;-87
2021/07/11 06:04:00;;;;;;;0.10;0.10;;;;;;;;;;4917824;29;20040;-87
2021/07/11 06:06:26;;;;;;;0.10;0.10;;;;;;;;;;4935285;29;20048;-87
2021/07/11 06:08:52;;;;;;;0.38;0.38;;;;;;;;;;4917643;29;20040;-88
2021/07/11 06:11:18;;;;;;;0.20;0.20;;;;;;;;;;4918345;29;20417;-88
2021/07/11 06:13:45;;;;;;;0.30;0.20;;;;;;;;;;4918161;29;20050;-87
2021/07/11 06:16:13;;;;;;;0.10;0.10;;;;;;;;;;4902292;29;20503;-87
2021/07/11 06:18:39;;;;;;;0.10;0.10;;;;;;;;;;4918152;29;20079;-87
2021/07/11 06:21:05;;;;;;;0.13;0.13;;;;;;;;;;4917827;29;20040;-88
2021/07/11 06:23:31;;;;;;;0.10;0.10;;;;;;;;;;4916905;29;20138;-89
2021/07/11 06:25:57;;;;;;;0.20;0.20;;;;;;;;;;4918184;29;20126;-88
2021/07/11 06:28:23;;;;;;;0.52;0.52;;;;;;;;;;4918054;29;20384;-88
2021/07/11 06:30:49;;;;;;;0.20;0.20;;;;;;;;;;4917987;29;20342;-88
2021/07/11 06:33:15;;;;;;;1.40;1.10;;;;;;;;;;4917951;29;20067;-87
2021/07/11 06:35:41;;;;;;;0.30;0.30;;;;;;;;;;4930687;29;20056;-88
2021/07/11 06:38:07;;;;;;;0.20;0.20;;;;;;;;;;4923663;29;20144;-89
2021/07/11 06:40:33;;;;;;;0.13;0.13;;;;;;;;;;4918323;29;20039;-88
2021/07/11 06:42:59;;;;;;;0.10;0.10;;;;;;;;;;4918011;29;20492;-88
2021/07/11 06:45:25;;;;;;;0.10;0.10;;;;;;;;;;4902117;29;20047;-87
2021/07/11 06:47:51;;;;;;;0.15;0.15;;;;;;;;;;4917909;29;20047;-88
2021/07/11 06:50:18;;;;;;;0.15;0.15;;;;;;;;;;4917655;29;20048;-90
2021/07/11 06:52:44;;;;;;;0.10;0.10;;;;;;;;;;4934754;29;20043;-88
2021/07/11 06:55:11;;;;;;;0.10;0.10;;;;;;;;;;4917908;29;20043;-90
2021/07/11 06:57:40;;;;;;;0.40;0.40;;;;;;;;;;4917631;29;20088;-88
2021/07/11 07:00:35;;;;;;;0.20;0.20;;;;;;;;;;4918330;29;20048;-89
2021/07/11 07:03:01;;;;;;;0.13;0.13;;;;;;;;;;4931589;29;20118;-88
2021/07/11 07:05:27;;;;;;;0.20;0.20;;;;;;;;;;4918711;29;20040;-89
2021/07/11 07:07:53;;;;;;;0.30;0.30;;;;;;;;;;4918121;29;20035;-90
2021/07/11 07:10:20;;;;;;;0.30;0.30;;;;;;;;;;4917932;29;20039;-90
2021/07/11 07:12:46;;;;;;;0.10;0.10;;;;;;;;;;4902444;29;20053;-87
2021/07/11 07:15:12;;;;;;;0.20;0.20;;;;;;;;;;4917661;29;20048;-87
2021/07/11 07:17:39;;;;;;;0.20;0.20;;;;;;;;;;4933262;29;20103;-88
2021/07/11 07:20:06;;;;;;;0.20;0.20;;;;;;;;;;4917737;29;20372;-89
2021/07/11 07:22:32;;;;;;;0.20;0.20;;;;;;;;;;4917784;29;20070;-88
2021/07/11 07:24:58;;;;;;;0.20;0.20;;;;;;;;;;4917762;29;20067;-88
2021/07/11 07:27:25;;;;;;;0.10;0.10;;;;;;;;;;4917776;29;20152;-92
2021/07/11 07:29:51;;;;;;;0.10;0.10;;;;;;;;;;4921270;29;20134;-92
2021/07/11 07:32:18;;;;;;;0.20;0.20;;;;;;;;;;4921486;29;20480;-92
2021/07/11 07:34:45;;;;;;;0.20;0.20;;;;;;;;;;4921496;29;20047;-89
2021/07/11 07:37:11;;;;;;;0.20;0.20;;;;;;;;;;4936349;29;20052;-88
2021/07/11 07:39:37;;;;;;;0.38;0.38;;;;;;;;;;4920936;29;20114;-88
2021/07/11 07:42:03;;;;;;;0.10;0.10;;;;;;;;;;4920879;29;20457;-88
2021/07/11 07:44:30;;;;;;;0.20;0.20;;;;;;;;;;4920889;29;20094;-87
2021/07/11 07:46:56;;;;;;;0.20;0.20;;;;;;;;;;4920808;29;20043;-84
2021/07/11 07:49:22;;;;;;;0.20;0.20;;;;;;;;;;4937550;29;20407;-86
2021/07/11 07:51:48;;;;;;;0.28;0.28;;;;;;;;;;4920743;29;20115;-87
2021/07/11 07:54:14;;;;;;;0.20;0.20;;;;;;;;;;4920720;29;20079;-88
2021/07/11 07:56:40;;;;;;;0.25;0.20;;;;;;;;;;4920588;29;20071;-88
2021/07/11 07:59:06;;;;;;;0.20;0.20;;;;;;;;;;4937489;29;20543;-89
2021/07/11 08:01:32;;;;;;;0.20;0.20;;;;;;;;;;4920446;29;20144;-85
2021/07/11 08:03:59;;;;;;;0.20;0.20;;;;;;;;;;4937317;29;20119;-85
2021/07/11 08:06:25;;;;;;;0.20;0.20;;;;;;;;;;4920398;29;20043;-86
2021/07/11 08:08:51;;;;;;;0.20;0.20;;;;;;;;;;4920369;29;20036;-85
2021/07/11 08:11:17;;;;;;;0.10;0.10;;;;;;;;;;4920297;29;20384;-85
2021/07/11 08:13:43;;;;;;;0.32;0.32;;;;;;;;;;4920181;29;20398;-87
2021/07/11 08:16:09;;;;;;;0.20;0.20;;;;;;;;;;4935841;29;20047;-90
2021/07/11 08:18:36;;;;;;;0.20;0.20;;;;;;;;;;4920091;29;20043;-86
2021/07/11 08:21:02;;;;;;;0.10;0.10;;;;;;;;;;4937203;29;20097;-85
2021/07/11 08:23:28;;;;;;;0.20;0.20;;;;;;;;;;4937003;29;20043;-86
2021/07/11 08:25:57;;;;;;;0.20;0.20;;;;;;;;;;4937309;29;20044;-93
2021/07/11 08:28:24;;;;;;;0.20;0.20;;;;;;;;;;4924183;29;20067;-95
2021/07/11 08:30:56;;;;;;;0.30;0.30;;;;;;;;;;4908650;29;20059;-95
2021/07/11 08:33:22;;;;;;;0.20;0.20;;;;;;;;;;4937396;29;20062;-94
2021/07/11 08:35:48;;;;;;;0.20;0.20;;;;;;;;;;4921409;29;20050;-94
2021/07/11 08:38:14;;;;;;;0.20;0.20;;;;;;;;;;4920959;29;20055;-94
2021/07/11 08:40:40;;;;;;;0.30;0.30;;;;;;;;;;4921379;29;20032;-94
2021/07/11 08:43:07;;;;;;;0.20;0.20;;;;;;;;;;4905595;29;20139;-93
2021/07/11 08:45:33;;;;;;;0.20;0.20;;;;;;;;;;4905447;29;20487;-95
2021/07/11 08:48:00;;;;;;;0.20;0.20;;;;;;;;;;4921251;29;20036;-94
2021/07/11 08:50:26;;;;;;;0.22;0.22;;;;;;;;;;4905805;29;20048;-94
2021/07/11 08:52:52;;;;;;;0.20;0.20;;;;;;;;;;4921454;29;20063;-94
2021/07/11 08:55:19;;;;;;;0.20;0.20;;;;;;;;;;4921191;29;20133;-94
2021/07/11 08:57:52;;;;;;;0.40;0.40;;;;;;;;;;4921479;29;20067;-94
2021/07/11 09:00:18;;;;;;;0.20;0.20;;;;;;;;;;4921142;29;20062;-94
2021/07/11 09:02:44;;;;;;;0.20;0.20;;;;;;;;;;4920936;29;20067;-94
2021/07/11 09:05:27;;;;;;;0.20;0.20;;;;;;;;;;4921056;29;20103;-94
2021/07/11 09:08:11;;;;;;;0.20;0.20;;;;;;;;;;4905128;29;20483;-93
2021/07/11 09:10:37;;;;;;;0.20;0.20;;;;;;;;;;4905164;29;20054;-94
2021/07/11 09:13:07;;;;;;;0.20;0.20;;;;;;;;;;4920762;29;20043;-93
2021/07/11 09:15:34;;;;;;;0.20;0.20;;;;;;;;;;4905223;29;20519;-93
2021/07/11 09:18:00;;;;;;;0.20;0.20;;;;;;;;;;4920462;29;20550;-96
2021/07/11 09:20:30;;;;;;;0.30;0.30;;;;;;;;;;4905684;29;20138;-95
2021/07/11 09:22:57;;;;;;;0.35;0.22;;;;;;;;;;4920950;29;20051;-95
2021/07/11 09:25:23;;;;;;;0.20;0.20;;;;;;;;;;4920410;29;20110;-94
2021/07/11 09:27:49;;;;;;;0.40;0.30;;;;;;;;;;4920240;29;20040;-94
2021/07/11 09:30:17;;;;;;;0.20;0.20;;;;;;;;;;4904465;29;20118;-94
2021/07/11 09:32:43;;;;;;;0.20;0.20;;;;;;;;;;4920388;29;20055;-93
2021/07/11 09:35:17;;;;;;;0.20;0.20;;;;;;;;;;4920168;29;20032;-93
2021/07/11 09:37:45;;;;;;;0.20;0.20;;;;;;;;;;4920350;29;20086;-95
2021/07/11 09:40:11;;;;;;;0.20;0.20;;;;;;;;;;4904777;29;20074;-94
2021/07/11 09:42:38;;;;;;;0.40;0.40;;;;;;;;;;4904753;29;20044;-93
2021/07/11 09:45:11;;;;;;;0.20;0.20;;;;;;;;;;4920169;29;20102;-94
2021/07/11 09:47:37;;;;;;;0.30;0.30;;;;;;;;;;4920254;29;20051;-93
2021/07/11 09:50:03;;;;;;;0.30;0.30;;;;;;;;;;4904130;29;20052;-94
2021/07/11 09:52:32;;;;;;;0.20;0.20;;;;;;;;;;4935115;29;20063;-94
2021/07/11 09:54:59;;;;;;;0.20;0.20;;;;;;;;;;4904722;29;20048;-94
2021/07/11 09:57:32;;;;;;;0.25;0.25;;;;;;;;;;4904112;29;20079;-94
2021/07/11 10:00:01;;;;;;;0.20;0.20;;;;;;;;;;4919543;29;20471;-94
2021/07/11 10:02:27;;;;;;;0.20;0.20;;;;;;;;;;4919763;29;20040;-95
2021/07/11 10:04:53;;;;;;;0.20;0.20;;;;;;;;;;4904681;29;20036;-93
2021/07/11 10:07:20;;;;;;;0.20;0.20;;;;;;;;;;4903834;29;20083;-94
2021/07/11 10:09:46;;;;;;;0.30;0.30;;;;;;;;;;4919778;29;20471;-94
2021/07/11 10:12:12;;;;;;;0.20;0.20;;;;;;;;;;4919960;29;20201;-93
2021/07/11 10:14:39;;;;;;;0.20;0.20;;;;;;;;;;4919750;29;20123;-94
2021/07/11 10:17:05;;;;;;;0.30;0.30;;;;;;;;;;4919556;29;20387;-94
2021/07/11 10:19:31;;;;;;;0.20;0.20;;;;;;;;;;4919900;29;20545;-94
2021/07/11 10:21:58;;;;;;;0.10;0.10;;;;;;;;;;4904139;29;20062;-94
2021/07/11 10:24:24;;;;;;;0.20;0.20;;;;;;;;;;4919547;29;20086;-94
2021/07/11 10:26:53;;;;;;;0.20;0.20;;;;;;;;;;4919767;29;20115;-95
2021/07/11 10:29:22;;;;;;;0.20;0.20;;;;;;;;;;4919686;29;20039;-93
2021/07/11 10:31:49;;;;;;;0.20;0.20;;;;;;;;;;4903950;29;20498;-95
2021/07/11 10:34:28;;;;;;;0.20;0.20;;;;;;;;;;4904048;29;20075;-94
2021/07/11 10:36:54;;;;;;;0.30;0.30;;;;;;;;;;4919358;29;20512;-94
2021/07/11 10:39:20;;;;;;;0.45;0.45;;;;;;;;;;4919785;29;20556;-93
2021/07/11 10:41:47;;;;;;;0.20;0.20;;;;;;;;;;4903630;29;20115;-93
2021/07/11 10:44:23;;;;;;;0.20;0.20;;;;;;;;;;4919651;29;20031;-94
2021/07/11 10:46:54;;;;;;;0.20;0.20;;;;;;;;;;4919457;29;20098;-93
2021/07/11 10:49:33;;;;;;;0.20;0.20;;;;;;;;;;4919911;29;20036;-95
2021/07/11 10:52:09;;;;;;;0.20;0.20;;;;;;;;;;4934377;29;20035;-91
2021/07/11 10:54:38;;;;;;;0.20;0.20;;;;;;;;;;4902757;29;20467;-91
2021/07/11 10:57:07;;;;;;;0.20;0.20;;;;;;;;;;4918068;29;20064;-92
2021/07/11 10:59:39;;;;;;;0.20;0.20;;;;;;;;;;4919882;29;20134;-93
2021/07/11 11:02:31;;;;;;;0.20;0.20;;;;;;;;;;4919561;29;20483;-93
2021/07/11 11:05:02;;;;;;;0.20;0.20;;;;;;;;;;4938156;29;20039;-92
2021/07/11 11:07:50;;;;;;;0.20;0.20;;;;;;;;;;4907254;29;20055;-92
2021/07/11 11:10:22;;;;;;;0.20;0.20;;;;;;;;;;4939220;29;20483;-94
2021/07/11 11:13:03;;;;;;;0.20;0.20;;;;;;;;;;4932167;28;20048;-90
2021/07/11 11:16:07;;;;;;;0.20;0.20;;;;;;;;;;4938074;29;20046;-92
2021/07/11 11:18:56;;;;;;;0.20;0.20;;;;;;;;;;4917117;29;20055;-94
2021/07/11 11:21:23;;;;;;;0.13;0.13;;;;;;;;;;4938448;29;20053;-94
2021/07/11 11:23:51;;;;;;;0.20;0.20;;;;;;;;;;4922619;29;20043;-92
2021/07/11 11:26:18;;;;;;;0.47;0.47;;;;;;;;;;4922259;29;20122;-93
2021/07/11 11:28:44;;;;;;;0.20;0.20;;;;;;;;;;4924415;29;20052;-92
2021/07/11 11:31:23;;;;;;;0.45;0.40;;;;;;;;;;4922110;29;20043;-92
2021/07/11 11:34:00;;;;;;;0.20;0.20;;;;;;;;;;4937511;29;20475;-94
2021/07/11 11:36:27;;;;;;;0.20;0.20;;;;;;;;;;4923964;29;20456;-94
2021/07/11 11:38:54;;;;;;;0.20;0.20;;;;;;;;;;4925771;29;20396;-92
2021/07/11 11:41:26;;;;;;;0.20;0.20;;;;;;;;;;4921723;29;20130;-90
2021/07/11 11:43:52;;;;;;;0.30;0.30;;;;;;;;;;4937371;29;20399;-94
2021/07/11 11:46:28;;;;;;;0.30;0.30;;;;;;;;;;4906389;29;20048;-95
2021/07/11 11:48:58;;;;;;;0.20;0.20;;;;;;;;;;4905562;29;20055;-88
2021/07/11 11:51:25;;;;;;;0.40;0.20;;;;;;;;;;4920868;29;20134;-87
2021/07/11 11:53:51;;;;;;;0.20;0.20;;;;;;;;;;4920807;29;20031;-86
2021/07/11 11:56:17;;;;;;;0.20;0.20;;;;;;;;;;4936299;29;20047;-87
2021/07/11 11:58:43;;;;;;;0.20;0.20;;;;;;;;;;4937360;29;20039;-87
2021/07/11 12:01:11;;;;;;;0.30;0.30;;;;;;;;;;4920856;29;20443;-87
2021/07/11 12:03:37;;;;;;;0.20;0.20;;;;;;;;;;4920630;29;20035;-87
2021/07/11 12:06:07;;;;;;;0.20;0.20;;;;;;;;;;4920744;29;20479;-87
2021/07/11 12:08:37;;;;;;;0.20;0.20;;;;;;;;;;4920361;29;20048;-89
2021/07/11 12:11:03;;;;;;;0.20;0.20;;;;;;;;;;4920286;29;20048;-87
2021/07/11 12:13:29;;;;;;;0.20;0.20;;;;;;;;;;4920174;29;20509;-88
2021/07/11 12:16:09;;;;;;;0.20;0.20;;;;;;;;;;4919926;29;20126;-88
2021/07/11 12:18:42;;;;;;;0.20;0.20;;;;;;;;;;4920757;29;20442;-88
2021/07/11 12:21:08;;;;;;;0.20;0.20;;;;;;;;;;4921883;29;20047;-87
2021/07/11 12:23:34;;;;;;;0.20;0.20;;;;;;;;;;4920413;29;20044;-87
2021/07/11 12:26:04;;;;;;;0.20;0.20;;;;;;;;;;4920415;29;20467;-91
2021/07/11 12:28:31;;;;;;;0.20;0.20;;;;;;;;;;4920328;29;20044;-87
2021/07/11 12:30:57;;;;;;;0.20;0.20;;;;;;;;;;4920244;29;20172;-86
2021/07/11 12:33:27;;;;;;;0.20;0.20;;;;;;;;;;4936828;29;20043;-86
2021/07/11 12:35:58;;;;;;;0.20;0.20;;;;;;;;;;4919791;29;20043;-88
2021/07/11 12:38:40;;;;;;;0.20;0.20;;;;;;;;;;4916940;29;20056;-87
2021/07/11 12:41:07;;;;;;;0.20;0.20;;;;;;;;;;4916511;29;20039;-88
2021/07/11 12:43:36;;;;;;;0.20;0.20;;;;;;;;;;4900761;29;20417;-86
2021/07/11 12:46:06;;;;;;;0.20;0.20;;;;;;;;;;4917659;29;20048;-89
2021/07/11 12:48:42;;;;;;;0.20;0.20;;;;;;;;;;4916393;29;20071;-87
2021/07/11 12:51:32;;;;;;;0.20;0.20;;;;;;;;;;4916944;29;20071;-87
2021/07/11 12:54:03;;;;;;;0.20;0.20;;;;;;;;;;4909093;29;20087;-88
2021/07/11 12:56:29;;;;;;;0.20;0.20;;;;;;;;;;4915476;29;20059;-88
2021/07/11 12:59:05;;;;;;;0.17;0.17;;;;;;;;;;4915984;29;20040;-86
2021/07/11 13:01:31;;;;;;;0.10;0.10;;;;;;;;;;4900693;29;20075;-86
2021/07/11 13:04:01;;;;;;;0.10;0.10;;;;;;;;;;4916063;29;20048;-86
2021/07/11 13:06:37;;;;;;;0.10;0.10;;;;;;;;;;4917121;29;20050;-87
2021/07/11 13:09:07;;;;;;;0.20;0.20;;;;;;;;;;4916038;29;20036;-86
2021/07/11 13:11:33;;;;;;;0.22;0.20;;;;;;;;;;4915933;29;20455;-89
2021/07/11 13:13:59;;;;;;;0.10;0.10;;;;;;;;;;4916071;29;20071;-89
2021/07/11 13:16:25;;;;;;;0.20;0.20;;;;;;;;;;4900086;29;20040;-88
2021/07/11 13:18:51;;;;;;;0.20;0.20;;;;;;;;;;4916294;29;20392;-87
2021/07/11 13:21:17;;;;;;;0.10;0.10;;;;;;;;;;4900173;29;20091;-87
2021/07/11 13:23:47;;;;;;;0.10;0.10;;;;;;;;;;4900069;29;20050;-87
2021/07/11 13:26:16;;;;;;;0.10;0.10;;;;;;;;;;4899547;29;20044;-87
2021/07/11 13:28:43;;;;;;;0.20;0.20;;;;;;;;;;4900115;29;20040;-88
2021/07/11 13:31:09;;;;;;;0.20;0.20;;;;;;;;;;4900220;29;20477;-87
2021/07/11 13:33:35;;;;;;;0.20;0.20;;;;;;;;;;4900052;29;20036;-88
2021/07/11 13:36:01;;;;;;;0.20;0.20;;;;;;;;;;4899435;29;20043;-88
2021/07/11 13:38:27;;;;;;;0.20;0.20;;;;;;;;;;4915496;29;20115;-88
2021/07/11 13:40:56;;;;;;;0.32;0.32;;;;;;;;;;4899780;29;20051;-89
2021/07/11 13:43:27;;;;;;;0.20;0.20;;;;;;;;;;4915481;29;20492;-90
2021/07/11 13:45:53;;;;;;;0.20;0.20;;;;;;;;;;4916492;29;20060;-88
2021/07/11 13:48:20;;;;;;;0.20;0.20;;;;;;;;;;4900001;29;20040;-88
2021/07/11 13:50:48;;;;;;;0.20;0.20;;;;;;;;;;4916581;29;20040;-89
2021/07/11 13:53:19;;;;;;;0.20;0.20;;;;;;;;;;4916464;29;20075;-89
2021/07/11 13:55:46;;;;;;;0.20;0.20;;;;;;;;;;4915138;29;20111;-90
2021/07/11 13:58:12;;;;;;;0.20;0.20;;;;;;;;;;4915179;29;20119;-87
2021/07/11 14:00:39;;;;;;;0.20;0.20;;;;;;;;;;4915221;29;20508;-87
2021/07/11 14:03:05;;;;;;;0.10;0.10;;;;;;;;;;4915502;29;20032;-87
2021/07/11 14:05:31;;;;;;;0.20;0.20;;;;;;;;;;4915459;29;20046;-88
2021/07/11 14:08:00;;;;;;;0.20;0.20;;;;;;;;;;4914972;29;20052;-87
2021/07/11 14:10:30;;;;;;;0.35;0.35;;;;;;;;;;4900679;29;20052;-87
2021/07/11 14:12:59;;;;;;;0.20;0.20;;;;;;;;;;4915401;29;20036;-90
2021/07/11 14:15:26;;;;;;;0.20;0.20;;;;;;;;;;4916778;29;20098;-87
2021/07/11 14:17:52;;;;;;;0.30;0.30;;;;;;;;;;4915173;29;20052;-89
2021/07/11 14:20:18;;;;;;;0.13;0.13;;;;;;;;;;4915117;29;20527;-88
2021/07/11 14:22:44;;;;;;;0.30;0.20;;;;;;;;;;4915281;29;20123;-90
2021/07/11 14:25:14;;;;;;;0.20;0.20;;;;;;;;;;4899455;29;20055;-90
2021/07/11 14:27:40;;;;;;;0.20;0.20;;;;;;;;;;4916008;29;20047;-90
2021/07/11 14:30:07;;;;;;;0.20;0.20;;;;;;;;;;4915161;29;20040;-91
2021/07/11 14:32:33;;;;;;;0.20;0.20;;;;;;;;;;4915648;29;20381;-90
2021/07/11 14:35:00;;;;;;;0.10;0.10;;;;;;;;;;4915060;29;20084;-87
2021/07/11 14:37:26;;;;;;;0.20;0.20;;;;;;;;;;4917113;29;20056;-88
2021/07/11 14:39:52;;;;;;;0.20;0.20;;;;;;;;;;4921367;29;20036;-87
2021/07/11 14:42:18;;;;;;;0.20;0.20;;;;;;;;;;4921591;29;20036;-89
2021/07/11 14:44:44;;;;;;;0.20;0.20;;;;;;;;;;4921192;29;20135;-88
2021/07/11 14:47:10;;;;;;;0.30;0.30;;;;;;;;;;4921297;29;20099;-89